EKVGBIRK

Guest
Details From EKVG - Vagar
To BIRK - Reykjavik
Flight Number -
Tags Decoded
Created
Modified
Stats Distance 418 nm / 774 km
Max Altitude 0 ft / 0 m
Waypoints 5
Social Downloads 4
Likes 1
Share VATSIM

Download

Looking for another format? Having issues loading an existing format? Contact us
Advertisement - Login to hide

Notes

Decoded

Route

EKVG MY METIL EL BIRK

ID Type Via Altitude Latitude Longitude Leg Dist Tot Dist Heading (true) Name
O EKVG APT - 0 ft / 0 m 62.06621˚ -7.28761˚ - 0 nm - -
MY NDB - 0 ft / 0 m 62.10694˚ -7.58778˚ 8 nm 8 nm 286° / 286° MYGGENES NDB
METIL FIX - 0 ft / 0 m 63.97194˚ -21.52611˚ 394 nm 403 nm 293° / 280° -
EL NDB - 0 ft / 0 m 64.08111˚ -21.77083˚ 9 nm 412 nm 316° / 315° ELLIDAVATN NDB
O BIRK APT - 0 ft / 0 m 64.12743˚ -21.94699˚ 5 nm 418 nm 301° / 301° -

Altitude Profile

Advertisement - Login to hide

Weather


0- 5 10 15 20 25 30 35+ Temperature / ° C

Clouds and Precipitation
Forecast for 2017-12-13 12:00 UTC. Updated 2 hours ago

Ground ~20,000 ft ~40,000 ft Winds

EKVG

Details ICAO EKVG (FAE)
Name Vagar
Region Denmark / Faroe Islands
Timezone Atlantic/Faroe (UTC+0.0)
Stats Elevation 280 ft / 85 m (AMSL)
Location 62.063584° -7.277044°
Runways 1
Magnetic Variation 5.385° W

METAR

EKVG 131120Z AUTO 28012KT 9999NDV -SHRA BKN011/// 03/03 Q0972

Decode

TAF

Not found

Departure Runways

ID Width Length Bearing (true) Bearing (mag) Surface Threshold Offset Overrun Length
13 98 ft / 30 m 4,088 ft / 1,246 m 117.92° 123.30° Asphalt 0 ft / 0 m 197 ft / 60 m
31 98 ft / 30 m 4,088 ft / 1,246 m 297.94° 303.32° Asphalt 0 ft / 0 m 197 ft / 60 m

BIRK

Details ICAO BIRK (RKV)
Name Reykjavik
Region Iceland
Timezone Atlantic/Reykjavik (UTC+0.0)
Stats Elevation 47 ft / 14 m (AMSL)
Location 64.129644° -21.940609°
Runways 3
Magnetic Variation 13.776° W

METAR

BIRK 131100Z 09007KT 9999 FEW030TCU 00/M03 Q0978 R19/390139

Decode

TAF

TAF BIRK 130802Z 1309/1409 09010KT 9999 FEW045 TXM00/1318Z TNM04/1403Z

Decode

Destination Runways

ID Width Length Bearing (true) Bearing (mag) Surface Threshold Offset Overrun Length
01 148 ft / 45 m 5,129 ft / 1,563 m 355.27° 9.05° Asphalt 262 ft / 80 m 0 ft / 0 m
06 98 ft / 30 m 2,800 ft / 853 m 46.35° 60.13° Asphalt 299 ft / 91 m 0 ft / 0 m
13 148 ft / 45 m 4,023 ft / 1,226 m 116.28° 130.06° Asphalt 0 ft / 0 m 0 ft / 0 m
19 148 ft / 45 m 5,129 ft / 1,563 m 175.27° 189.05° Asphalt 0 ft / 0 m 0 ft / 0 m
24 98 ft / 30 m 2,800 ft / 853 m 226.37° 240.15° Asphalt 0 ft / 0 m 0 ft / 0 m
31 148 ft / 45 m 4,023 ft / 1,226 m 296.30° 310.08° Asphalt 213 ft / 65 m 0 ft / 0 m

Approach Navaids

Runway Type Ident Frequency Range Bearing (true) Bearing (mag) Slope Elevation
13 Localiser IRE 109.10 MHz 18 nm / 33 km 116.29° 130.07° - 38 ft / 12 m (AMSL)
19 Localiser IRK 109.90 MHz 18 nm / 33 km 175.26° 189.04° - 20 ft / 6 m (AMSL)
19 Glidescope IRK 109.90 MHz 10 nm / 19 km 175.26° 189.04° 3.50° 48 ft / 15 m (AMSL)

Popular Alternatives